Time;durP1;ratioP1;P1;durP2;ratioP2;P2;SDS_P1;SDS_P2;PMS_P1;PMS_P2;Temp;Humidity;BMP_temperature;BMP_pressure;BME280_temperature;BME280_humidity;BME280_pressure;Samples;Min_cycle;Max_cycle;Signal;HPM_P1;HPM_P2
2021/12/10 00:02:18;;;;;;;5.80;3.47;;;;;;;;;;10418218;28;20029;-82
2021/12/10 00:07:21;;;;;;;4.90;3.63;;;;;;;;;;10418246;28;20494;-83
2021/12/10 00:12:27;;;;;;;6.45;4.00;;;;;;;;;;10419458;28;20037;-83
2021/12/10 00:17:27;;;;;;;4.70;3.70;;;;;;;;;;10420099;28;20041;-83
2021/12/10 00:22:45;;;;;;;5.40;3.92;;;;;;;;;;10419495;28;20056;-83
2021/12/10 00:27:52;;;;;;;4.55;3.72;;;;;;;;;;10419831;28;20448;-83
2021/12/10 00:33:01;;;;;;;7.20;4.03;;;;;;;;;;10867370;23;20066;-82
2021/12/10 00:38:03;;;;;;;4.22;3.42;;;;;;;;;;10391434;28;20056;-82
2021/12/10 00:43:04;;;;;;;5.05;3.58;;;;;;;;;;10390536;28;20094;-83
2021/12/10 00:48:04;;;;;;;5.20;3.45;;;;;;;;;;10390705;28;20056;-82
2021/12/10 00:53:05;;;;;;;5.30;4.00;;;;;;;;;;10390861;28;20037;-83
2021/12/10 00:58:06;;;;;;;5.60;3.58;;;;;;;;;;10390638;28;20037;-82
2021/12/10 01:03:09;;;;;;;7.95;3.53;;;;;;;;;;10390484;28;20057;-83
2021/12/10 01:08:09;;;;;;;6.70;3.90;;;;;;;;;;10389720;28;20054;-83
2021/12/10 01:13:14;;;;;;;6.55;4.05;;;;;;;;;;10389562;28;20065;-82
2021/12/10 01:28:58;;;;;;;8.10;3.83;;;;;;;;;;10389435;28;20069;-82
2021/12/10 01:33:59;;;;;;;5.72;3.60;;;;;;;;;;10389327;28;20045;-81
2021/12/10 01:38:59;;;;;;;5.63;3.83;;;;;;;;;;10388534;28;20028;-81
2021/12/10 01:44:04;;;;;;;4.95;3.53;;;;;;;;;;10386561;28;20176;-81
2021/12/10 01:49:06;;;;;;;4.63;3.53;;;;;;;;;;10388606;28;20053;-81
2021/12/10 01:54:13;;;;;;;5.07;3.28;;;;;;;;;;10387843;28;20098;-81
2021/12/10 01:59:15;;;;;;;7.15;4.07;;;;;;;;;;10388237;28;20030;-82
2021/12/10 02:04:20;;;;;;;4.85;3.65;;;;;;;;;;10387902;28;20025;-82
2021/12/10 02:09:21;;;;;;;8.82;3.70;;;;;;;;;;10387662;28;20056;-83
2021/12/10 02:14:22;;;;;;;7.18;3.78;;;;;;;;;;10402239;28;20049;-85
2021/12/10 02:19:23;;;;;;;4.82;3.38;;;;;;;;;;10387157;28;20314;-84
2021/12/10 02:24:23;;;;;;;9.90;3.13;;;;;;;;;;10387804;28;20105;-84
2021/12/10 02:29:28;;;;;;;3.55;3.10;;;;;;;;;;10386842;28;20041;-84
2021/12/10 02:34:29;;;;;;;4.97;3.40;;;;;;;;;;10387951;28;20075;-84
2021/12/10 02:39:29;;;;;;;5.10;3.50;;;;;;;;;;10387346;28;20060;-84
2021/12/10 02:44:31;;;;;;;3.88;3.47;;;;;;;;;;10387783;28;20442;-84
2021/12/10 02:49:32;;;;;;;4.57;3.40;;;;;;;;;;10386626;28;20049;-83
2021/12/10 02:54:34;;;;;;;4.68;3.55;;;;;;;;;;10387276;28;20034;-83
2021/12/10 02:59:35;;;;;;;4.13;3.58;;;;;;;;;;10386886;28;20072;-84
2021/12/10 03:04:36;;;;;;;4.57;3.25;;;;;;;;;;10401872;28;20034;-83
2021/12/10 03:09:36;;;;;;;8.40;3.33;;;;;;;;;;10387212;28;20124;-83
2021/12/10 03:14:39;;;;;;;4.77;3.20;;;;;;;;;;10385372;28;20149;-83
2021/12/10 03:19:39;;;;;;;4.57;3.22;;;;;;;;;;10386651;28;20447;-84
2021/12/10 03:24:40;;;;;;;6.10;3.50;;;;;;;;;;10364156;28;20030;-84
2021/12/10 03:29:42;;;;;;;3.70;3.20;;;;;;;;;;10352570;28;20033;-85
2021/12/10 03:34:43;;;;;;;6.38;3.35;;;;;;;;;;10356016;28;20042;-85
2021/12/10 03:39:45;;;;;;;4.43;3.40;;;;;;;;;;10351633;28;20030;-84
2021/12/10 03:44:46;;;;;;;3.83;3.28;;;;;;;;;;10408654;28;20041;-86
2021/12/10 03:49:46;;;;;;;5.63;3.47;;;;;;;;;;10393241;28;20037;-85
2021/12/10 03:54:47;;;;;;;4.10;3.45;;;;;;;;;;10392370;28;20108;-84
2021/12/10 03:59:47;;;;;;;4.13;3.35;;;;;;;;;;10390845;28;20037;-82
2021/12/10 04:04:51;;;;;;;5.95;3.05;;;;;;;;;;10350409;28;20129;-82
2021/12/10 04:09:52;;;;;;;3.97;3.22;;;;;;;;;;10351784;28;20081;-82
2021/12/10 04:14:53;;;;;;;3.33;3.03;;;;;;;;;;10386945;28;20065;-82
2021/12/10 04:19:54;;;;;;;5.60;3.70;;;;;;;;;;10390852;28;20032;-81
2021/12/10 04:24:54;;;;;;;3.42;3.05;;;;;;;;;;10391417;28;20411;-81
2021/12/10 04:29:57;;;;;;;4.50;2.88;;;;;;;;;;10391506;28;20041;-81
2021/12/10 04:34:58;;;;;;;3.20;2.90;;;;;;;;;;10391449;28;20049;-81
2021/12/10 04:40:02;;;;;;;3.78;2.97;;;;;;;;;;10390117;28;20026;-82
2021/12/10 04:45:04;;;;;;;5.40;3.50;;;;;;;;;;10390687;28;20044;-82
2021/12/10 04:50:06;;;;;;;4.55;3.33;;;;;;;;;;10390801;28;20025;-83
2021/12/10 04:55:09;;;;;;;2.95;2.60;;;;;;;;;;10390422;28;20034;-81
2021/12/10 05:00:14;;;;;;;4.97;3.50;;;;;;;;;;10389795;28;20041;-82
2021/12/10 05:05:15;;;;;;;3.80;3.00;;;;;;;;;;10390322;28;20049;-82
2021/12/10 05:10:17;;;;;;;4.55;3.28;;;;;;;;;;10390056;28;20040;-82
2021/12/10 05:15:21;;;;;;;3.33;2.72;;;;;;;;;;10389357;28;20042;-83
2021/12/10 05:20:35;;;;;;;3.47;3.05;;;;;;;;;;10389153;28;20037;-82
2021/12/10 05:25:35;;;;;;;5.63;3.13;;;;;;;;;;10389212;28;20464;-84
2021/12/10 05:30:36;;;;;;;4.05;2.88;;;;;;;;;;10389180;28;20092;-84
2021/12/10 05:35:37;;;;;;;3.13;2.80;;;;;;;;;;10388480;28;20033;-84
2021/12/10 05:40:37;;;;;;;5.27;2.90;;;;;;;;;;10388838;28;20061;-84
2021/12/10 05:45:38;;;;;;;3.27;2.67;;;;;;;;;;10388218;28;20467;-85
2021/12/10 05:50:39;;;;;;;3.85;3.10;;;;;;;;;;10369041;28;20459;-85
2021/12/10 05:55:41;;;;;;;4.30;3.17;;;;;;;;;;10379441;28;20038;-85
2021/12/10 06:00:46;;;;;;;4.78;3.03;;;;;;;;;;10387544;28;20033;-84
2021/12/10 06:05:46;;;;;;;4.50;3.13;;;;;;;;;;10370928;28;20033;-82
2021/12/10 06:10:48;;;;;;;5.05;3.10;;;;;;;;;;10347181;28;20038;-83
2021/12/10 06:15:49;;;;;;;4.68;3.72;;;;;;;;;;10375184;28;20042;-82
2021/12/10 06:20:51;;;;;;;4.32;3.90;;;;;;;;;;10387209;28;20096;-83
2021/12/10 06:25:51;;;;;;;4.10;3.70;;;;;;;;;;10386654;28;20464;-85
2021/12/10 06:30:53;;;;;;;4.57;3.45;;;;;;;;;;10385866;28;20065;-87
2021/12/10 06:35:55;;;;;;;4.20;3.17;;;;;;;;;;10390059;28;20038;-88
2021/12/10 06:40:55;;;;;;;6.07;3.17;;;;;;;;;;10374018;28;20112;-88
2021/12/10 06:45:56;;;;;;;3.28;2.97;;;;;;;;;;10364550;28;20515;-87
2021/12/10 06:51:00;;;;;;;4.63;3.33;;;;;;;;;;10371358;28;20114;-83
2021/12/10 06:56:01;;;;;;;4.57;3.67;;;;;;;;;;10387297;28;20044;-87
2021/12/10 07:01:16;;;;;;;7.80;4.37;;;;;;;;;;10371788;28;20081;-88
2021/12/10 07:06:18;;;;;;;12.75;4.50;;;;;;;;;;10351300;28;20471;-90
2021/12/10 07:11:20;;;;;;;7.13;4.55;;;;;;;;;;10380476;28;20395;-88
2021/12/10 07:16:22;;;;;;;7.35;3.88;;;;;;;;;;10392443;28;20034;-90
2021/12/10 07:21:22;;;;;;;12.45;4.63;;;;;;;;;;10394891;28;20065;-87
2021/12/10 07:26:23;;;;;;;23.42;4.53;;;;;;;;;;10393868;28;20033;-86
2021/12/10 07:31:23;;;;;;;18.90;4.40;;;;;;;;;;10392880;28;20487;-84
2021/12/10 07:36:24;;;;;;;13.65;4.43;;;;;;;;;;10392576;28;20471;-84
2021/12/10 07:41:25;;;;;;;6.97;3.53;;;;;;;;;;10392018;28;20034;-84
2021/12/10 07:46:27;;;;;;;9.05;3.75;;;;;;;;;;10392758;28;20029;-83
2021/12/10 07:51:29;;;;;;;7.75;4.28;;;;;;;;;;10392206;28;20069;-84
2021/12/10 07:56:31;;;;;;;10.57;3.85;;;;;;;;;;10392986;28;20452;-83
2021/12/10 08:01:33;;;;;;;5.38;3.90;;;;;;;;;;10371506;28;20101;-84
2021/12/10 08:06:34;;;;;;;6.47;3.65;;;;;;;;;;10352222;28;20037;-84
2021/12/10 08:11:36;;;;;;;8.23;3.67;;;;;;;;;;10351325;28;20038;-83
2021/12/10 08:16:39;;;;;;;8.07;3.72;;;;;;;;;;10351427;28;20030;-84
2021/12/10 08:21:41;;;;;;;5.90;3.88;;;;;;;;;;10351630;28;20034;-84
2021/12/10 08:26:42;;;;;;;9.05;4.85;;;;;;;;;;10365981;28;20080;-83
2021/12/10 08:31:43;;;;;;;9.35;4.40;;;;;;;;;;10349888;28;20054;-84
2021/12/10 08:36:43;;;;;;;10.25;4.53;;;;;;;;;;10350684;28;20550;-81
2021/12/10 08:41:44;;;;;;;7.70;4.50;;;;;;;;;;10350417;28;20026;-85
2021/12/10 08:46:45;;;;;;;9.40;4.35;;;;;;;;;;10350133;28;20040;-84
2021/12/10 08:51:53;;;;;;;7.07;3.95;;;;;;;;;;10350322;28;20034;-85
2021/12/10 08:56:54;;;;;;;5.77;4.10;;;;;;;;;;10350867;28;20045;-84
2021/12/10 09:01:57;;;;;;;10.52;4.10;;;;;;;;;;10349829;28;20120;-84
2021/12/10 09:07:02;;;;;;;8.35;4.28;;;;;;;;;;10349473;28;20034;-84
2021/12/10 09:12:07;;;;;;;6.40;4.43;;;;;;;;;;10349995;28;20034;-83
2021/12/10 09:17:09;;;;;;;7.20;3.97;;;;;;;;;;10349222;28;20456;-85
2021/12/10 09:22:09;;;;;;;6.55;3.92;;;;;;;;;;10349332;28;20030;-85
2021/12/10 09:27:11;;;;;;;7.82;3.97;;;;;;;;;;10348946;28;20124;-83
2021/12/10 09:32:16;;;;;;;7.70;3.80;;;;;;;;;;10348752;28;20046;-83
2021/12/10 09:37:17;;;;;;;10.95;4.63;;;;;;;;;;10348009;28;20041;-83
2021/12/10 09:42:20;;;;;;;6.88;4.47;;;;;;;;;;10348341;28;20030;-83
2021/12/10 09:47:21;;;;;;;7.88;4.68;;;;;;;;;;10348106;28;20034;-83
2021/12/10 09:52:25;;;;;;;6.95;4.60;;;;;;;;;;10348209;28;20128;-83
2021/12/10 09:57:29;;;;;;;6.35;3.92;;;;;;;;;;10347816;28;20514;-83
2021/12/10 10:02:30;;;;;;;7.50;4.65;;;;;;;;;;10348142;28;20034;-83
2021/12/10 10:07:30;;;;;;;16.30;4.50;;;;;;;;;;10347300;28;20030;-83
2021/12/10 10:12:34;;;;;;;8.27;3.92;;;;;;;;;;10347377;28;20026;-83
2021/12/10 10:17:34;;;;;;;6.25;4.07;;;;;;;;;;10347002;28;20030;-83
2021/12/10 10:22:35;;;;;;;11.15;4.65;;;;;;;;;;10346416;28;20045;-82
2021/12/10 10:27:39;;;;;;;5.35;4.18;;;;;;;;;;10346700;28;20034;-83
2021/12/10 10:32:43;;;;;;;7.82;4.63;;;;;;;;;;10346532;28;20050;-81
2021/12/10 10:37:45;;;;;;;7.05;4.45;;;;;;;;;;10346717;28;20038;-82
2021/12/10 10:42:46;;;;;;;7.15;4.35;;;;;;;;;;10346747;28;20030;-83
2021/12/10 10:47:48;;;;;;;8.90;4.70;;;;;;;;;;10348372;28;20030;-82
2021/12/10 10:52:54;;;;;;;8.20;4.13;;;;;;;;;;10354811;28;20483;-83
2021/12/10 10:57:54;;;;;;;6.55;4.30;;;;;;;;;;10354753;28;20475;-84
2021/12/10 11:03:01;;;;;;;6.60;3.75;;;;;;;;;;10354055;28;20106;-82
2021/12/10 11:08:04;;;;;;;5.40;4.00;;;;;;;;;;10354317;28;20061;-83
2021/12/10 11:13:15;;;;;;;5.55;3.78;;;;;;;;;;10354259;28;20121;-83
2021/12/10 11:18:16;;;;;;;5.45;3.88;;;;;;;;;;10353825;28;20469;-82
2021/12/10 11:23:23;;;;;;;6.67;4.63;;;;;;;;;;10353881;28;20100;-82
2021/12/10 11:28:30;;;;;;;7.80;4.10;;;;;;;;;;10368633;28;20463;-82
2021/12/10 11:33:37;;;;;;;8.32;4.70;;;;;;;;;;10353360;28;20038;-83
2021/12/10 11:38:37;;;;;;;8.43;4.05;;;;;;;;;;10353109;28;20406;-82
2021/12/10 11:44:07;;;;;;;6.63;4.15;;;;;;;;;;10353407;28;20045;-83
2021/12/10 11:49:27;;;;;;;6.20;3.95;;;;;;;;;;10352407;28;20034;-83
2021/12/10 11:54:38;;;;;;;6.68;3.85;;;;;;;;;;10352613;28;20058;-82
2021/12/10 11:59:43;;;;;;;5.93;3.92;;;;;;;;;;10351419;28;20038;-82
2021/12/10 12:04:46;;;;;;;7.18;3.60;;;;;;;;;;10351952;28;20027;-82
2021/12/10 12:09:52;;;;;;;5.30;3.90;;;;;;;;;;10351926;28;20384;-82
2021/12/10 12:14:57;;;;;;;9.60;4.20;;;;;;;;;;10352145;28;20038;-83
2021/12/10 12:19:57;;;;;;;8.60;3.58;;;;;;;;;;10352565;28;20038;-82
2021/12/10 12:25:08;;;;;;;8.07;3.90;;;;;;;;;;10351360;28;20121;-82
2021/12/10 12:30:13;;;;;;;8.27;4.10;;;;;;;;;;10428804;23;20511;-78
2021/12/10 12:35:24;;;;;;;7.13;3.78;;;;;;;;;;10418853;28;20094;-78
2021/12/10 12:40:25;;;;;;;5.25;3.80;;;;;;;;;;10418737;28;20040;-78
2021/12/10 12:45:26;;;;;;;4.68;3.28;;;;;;;;;;10417530;28;20035;-78
2021/12/10 12:50:30;;;;;;;4.47;3.10;;;;;;;;;;10418230;28;20033;-78
2021/12/10 12:55:51;;;;;;;6.70;3.25;;;;;;;;;;10410270;28;20112;-78
2021/12/10 13:01:01;;;;;;;6.43;3.17;;;;;;;;;;10377301;28;20072;-78
2021/12/10 13:06:14;;;;;;;5.35;3.30;;;;;;;;;;10416859;28;20047;-78
2021/12/10 13:11:22;;;;;;;5.15;3.20;;;;;;;;;;10408970;28;20128;-75
2021/12/10 13:16:32;;;;;;;6.45;2.95;;;;;;;;;;10416369;28;20063;-75
2021/12/10 13:21:32;;;;;;;5.43;3.58;;;;;;;;;;10412069;28;20513;-75
2021/12/10 13:26:33;;;;;;;4.95;2.60;;;;;;;;;;10380368;28;20069;-75
2021/12/10 13:31:34;;;;;;;4.53;3.10;;;;;;;;;;10390073;28;20055;-75
2021/12/10 13:36:36;;;;;;;9.60;3.15;;;;;;;;;;10415637;28;20095;-75
2021/12/10 13:41:37;;;;;;;5.95;3.00;;;;;;;;;;10415291;28;20034;-75
2021/12/10 13:46:50;;;;;;;5.72;3.10;;;;;;;;;;10412270;28;20034;-75
2021/12/10 13:51:53;;;;;;;4.68;2.55;;;;;;;;;;10378921;28;20484;-79
2021/12/10 13:56:57;;;;;;;7.68;3.20;;;;;;;;;;10378520;28;20045;-78
2021/12/10 14:02:04;;;;;;;7.38;3.33;;;;;;;;;;10401931;28;20360;-75
2021/12/10 14:07:14;;;;;;;10.52;3.60;;;;;;;;;;10377387;28;20026;-75
2021/12/10 14:12:39;;;;;;;4.18;2.75;;;;;;;;;;10387643;28;20034;-76
2021/12/10 14:17:52;;;;;;;7.20;3.10;;;;;;;;;;10373130;28;20121;-75
2021/12/10 14:23:03;;;;;;;5.25;2.75;;;;;;;;;;10379499;28;20076;-76
2021/12/10 14:28:12;;;;;;;5.57;3.30;;;;;;;;;;10377501;28;20038;-76
2021/12/10 14:33:24;;;;;;;4.82;2.72;;;;;;;;;;10372545;28;20104;-76
2021/12/10 14:38:54;;;;;;;7.40;3.05;;;;;;;;;;10374788;28;20472;-75
2021/12/10 14:44:04;;;;;;;7.35;2.83;;;;;;;;;;10373257;28;20032;-76
2021/12/10 14:49:23;;;;;;;6.15;3.20;;;;;;;;;;10372986;28;20093;-76
2021/12/10 14:54:23;;;;;;;4.32;2.58;;;;;;;;;;10374216;28;20444;-76
2021/12/10 14:59:42;;;;;;;5.57;2.85;;;;;;;;;;10374023;28;20030;-76
2021/12/10 15:05:13;;;;;;;4.90;2.87;;;;;;;;;;10373714;28;20030;-76
2021/12/10 15:10:24;;;;;;;6.78;2.83;;;;;;;;;;10367095;28;20088;-76
2021/12/10 15:16:01;;;;;;;4.28;2.80;;;;;;;;;;10373072;28;20064;-76
2021/12/10 15:21:40;;;;;;;9.68;2.40;;;;;;;;;;10373816;28;20034;-76
2021/12/10 15:27:00;;;;;;;8.80;2.90;;;;;;;;;;10367117;28;20045;-76
2021/12/10 15:32:09;;;;;;;6.22;3.10;;;;;;;;;;10378818;28;20495;-76
2021/12/10 15:37:11;;;;;;;3.65;2.58;;;;;;;;;;10419552;28;20025;-76
2021/12/10 15:42:18;;;;;;;8.65;2.97;;;;;;;;;;10382293;28;20518;-76
2021/12/10 15:47:19;;;;;;;10.52;4.15;;;;;;;;;;10379940;28;20030;-76
2021/12/10 15:52:22;;;;;;;10.05;3.38;;;;;;;;;;10378778;28;20076;-76
2021/12/10 15:57:26;;;;;;;13.85;4.97;;;;;;;;;;10382577;28;20460;-76
2021/12/10 16:02:27;;;;;;;17.10;3.95;;;;;;;;;;10419815;28;20032;-77
2021/12/10 16:07:32;;;;;;;11.40;3.55;;;;;;;;;;10420292;28;20379;-77
2021/12/10 16:12:33;;;;;;;9.90;3.38;;;;;;;;;;10420883;28;20133;-77
2021/12/10 16:17:33;;;;;;;14.75;3.40;;;;;;;;;;10420103;28;20056;-77
2021/12/10 16:22:34;;;;;;;13.88;4.25;;;;;;;;;;10419885;28;20041;-77
2021/12/10 16:27:47;;;;;;;10.63;3.50;;;;;;;;;;10417837;28;20088;-77
2021/12/10 16:32:49;;;;;;;7.60;3.67;;;;;;;;;;10419801;28;20538;-77
2021/12/10 16:37:51;;;;;;;17.95;4.45;;;;;;;;;;10419372;28;20514;-78
2021/12/10 16:42:55;;;;;;;10.82;4.22;;;;;;;;;;10419249;28;20068;-78
2021/12/10 16:47:57;;;;;;;12.43;4.10;;;;;;;;;;10419139;28;20025;-79
2021/12/10 16:52:57;;;;;;;20.05;4.25;;;;;;;;;;10375462;28;20038;-79
2021/12/10 16:58:02;;;;;;;25.15;4.28;;;;;;;;;;10375575;28;20034;-79
2021/12/10 17:03:04;;;;;;;19.27;3.63;;;;;;;;;;10384969;28;20069;-78
2021/12/10 17:08:10;;;;;;;14.73;4.05;;;;;;;;;;10377129;28;20076;-78
2021/12/10 17:13:16;;;;;;;11.95;4.22;;;;;;;;;;10376778;28;20410;-79
2021/12/10 17:18:22;;;;;;;10.07;3.40;;;;;;;;;;10375909;28;20049;-79
2021/12/10 17:23:24;;;;;;;13.70;3.53;;;;;;;;;;10376250;28;20419;-79
2021/12/10 17:28:27;;;;;;;9.88;3.28;;;;;;;;;;10376745;28;20374;-80
2021/12/10 17:33:31;;;;;;;8.45;3.78;;;;;;;;;;10373800;28;20033;-79
2021/12/10 17:38:32;;;;;;;7.78;3.92;;;;;;;;;;10376234;28;20045;-79
2021/12/10 17:43:36;;;;;;;9.40;3.30;;;;;;;;;;10371179;28;20379;-79
2021/12/10 17:48:40;;;;;;;7.30;3.55;;;;;;;;;;10374776;28;20025;-79
2021/12/10 17:53:42;;;;;;;7.55;3.42;;;;;;;;;;10377397;28;20059;-81
2021/12/10 17:58:44;;;;;;;8.10;3.13;;;;;;;;;;10405420;28;20076;-82
2021/12/10 18:03:51;;;;;;;6.72;3.03;;;;;;;;;;10414525;28;20120;-82
2021/12/10 18:08:52;;;;;;;13.15;3.92;;;;;;;;;;10395909;28;20037;-80
2021/12/10 18:13:54;;;;;;;12.43;4.18;;;;;;;;;;10400480;28;20056;-82
2021/12/10 18:18:56;;;;;;;8.80;3.80;;;;;;;;;;10409142;28;20387;-82
2021/12/10 18:24:03;;;;;;;5.95;3.75;;;;;;;;;;10397471;28;20107;-82
2021/12/10 18:29:08;;;;;;;8.10;3.92;;;;;;;;;;10414515;28;20131;-82
2021/12/10 18:34:12;;;;;;;7.18;3.65;;;;;;;;;;10413811;28;20048;-78
2021/12/10 18:39:19;;;;;;;7.40;3.97;;;;;;;;;;10422088;28;20105;-78
2021/12/10 18:44:23;;;;;;;5.90;4.20;;;;;;;;;;10413197;28;20041;-78
2021/12/10 18:49:26;;;;;;;5.60;4.13;;;;;;;;;;10413465;28;20033;-81
2021/12/10 18:54:31;;;;;;;13.95;4.28;;;;;;;;;;10404155;28;20030;-81
2021/12/10 18:59:42;;;;;;;10.10;4.18;;;;;;;;;;10410780;28;20392;-80
2021/12/10 19:04:46;;;;;;;10.57;4.18;;;;;;;;;;10413278;28;20045;-80
2021/12/10 19:09:49;;;;;;;9.48;4.10;;;;;;;;;;10417808;28;20037;-80
2021/12/10 19:14:54;;;;;;;7.20;4.75;;;;;;;;;;10421647;28;20037;-80
2021/12/10 19:20:20;;;;;;;8.90;4.50;;;;;;;;;;10422661;28;20021;-80
2021/12/10 19:25:29;;;;;;;7.15;4.05;;;;;;;;;;10420338;28;20103;-80
2021/12/10 19:31:03;;;;;;;8.65;4.50;;;;;;;;;;10419655;28;20067;-80
2021/12/10 19:36:30;;;;;;;10.02;4.03;;;;;;;;;;10406028;28;20506;-80
2021/12/10 19:41:35;;;;;;;6.25;4.00;;;;;;;;;;10368056;28;20125;-80
2021/12/10 19:46:39;;;;;;;13.07;4.72;;;;;;;;;;10419140;28;20041;-80
2021/12/10 19:51:53;;;;;;;6.57;4.13;;;;;;;;;;10415824;28;20040;-80
2021/12/10 19:57:17;;;;;;;11.23;4.32;;;;;;;;;;10418119;28;20033;-80
2021/12/10 20:02:35;;;;;;;7.03;4.45;;;;;;;;;;10379776;28;20395;-80
2021/12/10 20:07:42;;;;;;;8.40;4.80;;;;;;;;;;10378930;28;20088;-80
2021/12/10 20:12:48;;;;;;;8.95;4.35;;;;;;;;;;10410703;28;20082;-81
2021/12/10 20:17:59;;;;;;;8.88;4.20;;;;;;;;;;10379721;28;20034;-82
2021/12/10 20:23:04;;;;;;;14.13;5.47;;;;;;;;;;10376808;28;20044;-80
2021/12/10 20:28:08;;;;;;;9.23;4.75;;;;;;;;;;10379550;28;20068;-80
2021/12/10 20:33:15;;;;;;;8.07;4.30;;;;;;;;;;10412925;28;20140;-80
2021/12/10 20:38:34;;;;;;;8.57;4.05;;;;;;;;;;10418897;28;20037;-80
2021/12/10 20:43:39;;;;;;;;;;;;;;;;;;10382619;28;20025;-80
2021/12/10 20:48:51;;;;;;;7.43;4.15;;;;;;;;;;10378099;28;19925;-80
2021/12/10 20:53:57;;;;;;;11.40;4.32;;;;;;;;;;10416794;28;20029;-81
2021/12/10 20:59:03;;;;;;;6.22;3.88;;;;;;;;;;10406061;28;20034;-80
2021/12/10 21:04:11;;;;;;;10.93;5.30;;;;;;;;;;10381055;28;20034;-77
2021/12/10 21:09:15;;;;;;;12.02;4.22;;;;;;;;;;10417548;28;20456;-77
2021/12/10 21:14:26;;;;;;;8.48;4.38;;;;;;;;;;10417079;28;20537;-76
2021/12/10 21:19:30;;;;;;;14.00;4.70;;;;;;;;;;10393957;28;20030;-76
2021/12/10 21:24:36;;;;;;;10.90;4.90;;;;;;;;;;10375814;28;20030;-77
2021/12/10 21:29:58;;;;;;;9.38;4.45;;;;;;;;;;10382018;28;20116;-77
2021/12/10 21:35:31;;;;;;;11.48;4.93;;;;;;;;;;10394902;28;20034;-78
2021/12/10 21:40:51;;;;;;;10.23;3.80;;;;;;;;;;10398229;28;20110;-81
2021/12/10 21:46:05;;;;;;;12.73;4.95;;;;;;;;;;10416852;28;20372;-80
2021/12/10 21:51:10;;;;;;;13.82;5.10;;;;;;;;;;10413187;28;20033;-81
2021/12/10 21:56:14;;;;;;;10.02;4.75;;;;;;;;;;10394306;28;20121;-80
2021/12/10 22:01:22;;;;;;;9.23;4.30;;;;;;;;;;10413217;28;20463;-80
2021/12/10 22:06:30;;;;;;;14.80;4.72;;;;;;;;;;10389443;28;20042;-80
2021/12/10 22:11:45;;;;;;;8.68;4.68;;;;;;;;;;10413745;28;20483;-80
2021/12/10 22:16:50;;;;;;;22.15;4.97;;;;;;;;;;10402477;28;20124;-80
2021/12/10 22:22:01;;;;;;;18.27;4.50;;;;;;;;;;10402823;28;20093;-77
2021/12/10 22:27:08;;;;;;;14.02;4.50;;;;;;;;;;10412800;28;20099;-76
2021/12/10 22:32:17;;;;;;;11.45;4.68;;;;;;;;;;10413675;28;20487;-76
2021/12/10 22:37:18;;;;;;;13.05;4.80;;;;;;;;;;10399988;28;20484;-79
2021/12/10 22:42:36;;;;;;;16.77;4.65;;;;;;;;;;10384237;28;20030;-81
2021/12/10 22:47:40;;;;;;;16.15;5.15;;;;;;;;;;10400323;28;20026;-80
